KPGD/PGD METAR and TAF weather

Enter ICAO airport designator
Station Type Date Time Source
KPGD METAR 2019/05/21 19:53 UTC NOAA

KPGD 211953Z 26009KT 10SM FEW048 FEW080 SCT120 32/21 A2993 RMK AO2 SLP135 T03170211


Station Type Date Time Source
KPGD Decoded METAR 2019/05/21 19:53 UTC NOAA

PUNTA GORDA CHARLOTTE COUNTY, FL, United States (KPGD) 26-55N 82-00W 7M
May 21, 2019 - 03:53 PM EDT / 2019.05.21 1953 UTC
Wind: from the W (260 degrees) at 10 MPH (9 KT):0
Visibility: 10 mile(s):0
Sky conditions: partly cloudy
Temperature: 89.1 F (31.7 C)
Heat index: 94.3 F (34.6 C):1
Dew Point: 70.0 F (21.1 C)
Relative Humidity: 53%
Pressure (altimeter): 29.93 in. Hg (1013 hPa)
ob: KPGD 211953Z 26009KT 10SM FEW048 FEW080 SCT120 32/21 A2993 RMK AO2 SLP135 T03170211
cycle: 20

Station Type Date Time Source
KPGD TAF 2019/05/21 18:21 UTC NOAA

TAF KPGD 211720Z 2118/2218 23007KT P6SM SCT050
FM212100 25008KT P6SM VCTS SCT060CB
FM220200 12003KT P6SM SKC
FM221500 12005KT P6SM SCT030

Example: see airport list